sensor_id;sensor_type;location;lat;lon;timestamp;temperature;humidity
23769;DHT22;12064;50.890;5.424;2022-12-29T00:00:39;22.50;67.20
23769;DHT22;12064;50.890;5.424;2022-12-29T00:09:30;22.40;67.60
23769;DHT22;12064;50.890;5.424;2022-12-29T00:18:22;22.30;67.90
23769;DHT22;12064;50.890;5.424;2022-12-29T00:27:18;22.30;67.50
23769;DHT22;12064;50.890;5.424;2022-12-29T00:36:37;22.20;67.90
23769;DHT22;12064;50.890;5.424;2022-12-29T00:45:29;22.10;67.70
23769;DHT22;12064;50.890;5.424;2022-12-29T00:54:22;22.00;67.80
23769;DHT22;12064;50.890;5.424;2022-12-29T01:03:20;22.00;67.70
23769;DHT22;12064;50.890;5.424;2022-12-29T01:12:13;21.90;67.90
23769;DHT22;12064;50.890;5.424;2022-12-29T01:21:06;21.80;68.20
23769;DHT22;12064;50.890;5.424;2022-12-29T01:29:59;21.70;68.60
23769;DHT22;12064;50.890;5.424;2022-12-29T01:38:49;21.50;69.10
23769;DHT22;12064;50.890;5.424;2022-12-29T01:47:57;21.50;68.90
23769;DHT22;12064;50.890;5.424;2022-12-29T01:56:54;21.40;69.30
23769;DHT22;12064;50.890;5.424;2022-12-29T02:05:57;21.30;69.80
23769;DHT22;12064;50.890;5.424;2022-12-29T02:14:51;21.10;70.00
23769;DHT22;12064;50.890;5.424;2022-12-29T02:51:07;21.70;67.90
23769;DHT22;12064;50.890;5.424;2022-12-29T03:00:12;21.60;68.20
23769;DHT22;12064;50.890;5.424;2022-12-29T03:18:15;21.70;67.70
23769;DHT22;12064;50.890;5.424;2022-12-29T03:27:14;21.60;68.10
23769;DHT22;12064;50.890;5.424;2022-12-29T03:36:10;21.80;67.50
23769;DHT22;12064;50.890;5.424;2022-12-29T03:45:05;21.90;67.00
23769;DHT22;12064;50.890;5.424;2022-12-29T03:53:56;21.90;67.30
23769;DHT22;12064;50.890;5.424;2022-12-29T04:02:50;21.90;66.80
23769;DHT22;12064;50.890;5.424;2022-12-29T04:11:42;21.90;66.90
23769;DHT22;12064;50.890;5.424;2022-12-29T04:20:34;21.80;67.10
23769;DHT22;12064;50.890;5.424;2022-12-29T04:29:43;21.80;67.30
23769;DHT22;12064;50.890;5.424;2022-12-29T04:38:34;21.80;67.10
23769;DHT22;12064;50.890;5.424;2022-12-29T04:47:26;21.90;66.80
23769;DHT22;12064;50.890;5.424;2022-12-29T04:56:16;21.30;68.60
23769;DHT22;12064;50.890;5.424;2022-12-29T05:05:07;20.30;72.60
23769;DHT22;12064;50.890;5.424;2022-12-29T05:14:05;20.40;72.90
23769;DHT22;12064;50.890;5.424;2022-12-29T05:22:56;20.70;72.40
23769;DHT22;12064;50.890;5.424;2022-12-29T05:31:46;20.60;72.80
23769;DHT22;12064;50.890;5.424;2022-12-29T05:40:37;20.60;73.10
23769;DHT22;12064;50.890;5.424;2022-12-29T05:49:28;20.70;73.00
23769;DHT22;12064;50.890;5.424;2022-12-29T05:58:19;20.70;73.20
23769;DHT22;12064;50.890;5.424;2022-12-29T06:07:09;20.70;73.40
23769;DHT22;12064;50.890;5.424;2022-12-29T06:16:02;20.50;73.70
23769;DHT22;12064;50.890;5.424;2022-12-29T06:24:56;20.40;74.20
23769;DHT22;12064;50.890;5.424;2022-12-29T06:33:47;20.30;74.60
23769;DHT22;12064;50.890;5.424;2022-12-29T06:42:52;20.70;73.60
23769;DHT22;12064;50.890;5.424;2022-12-29T06:51:48;20.60;73.70
23769;DHT22;12064;50.890;5.424;2022-12-29T07:00:42;20.50;74.00
23769;DHT22;12064;50.890;5.424;2022-12-29T07:09:32;20.40;74.20
23769;DHT22;12064;50.890;5.424;2022-12-29T07:18:25;20.50;74.30
23769;DHT22;12064;50.890;5.424;2022-12-29T07:27:16;20.60;73.70
23769;DHT22;12064;50.890;5.424;2022-12-29T07:36:07;20.50;73.90
23769;DHT22;12064;50.890;5.424;2022-12-29T07:45:00;20.50;74.10
23769;DHT22;12064;50.890;5.424;2022-12-29T07:53:51;20.40;74.20
23769;DHT22;12064;50.890;5.424;2022-12-29T08:03:20;20.60;73.80
23769;DHT22;12064;50.890;5.424;2022-12-29T08:12:13;20.60;73.70
23769;DHT22;12064;50.890;5.424;2022-12-29T08:21:04;20.50;74.10
23769;DHT22;12064;50.890;5.424;2022-12-29T08:29:55;20.40;74.20
23769;DHT22;12064;50.890;5.424;2022-12-29T08:38:46;20.60;73.60
23769;DHT22;12064;50.890;5.424;2022-12-29T08:47:38;20.70;73.50
23769;DHT22;12064;50.890;5.424;2022-12-29T08:56:29;20.70;73.70
23769;DHT22;12064;50.890;5.424;2022-12-29T09:05:20;20.50;73.80
23769;DHT22;12064;50.890;5.424;2022-12-29T09:14:13;20.40;74.00
23769;DHT22;12064;50.890;5.424;2022-12-29T09:23:04;20.60;73.70
23769;DHT22;12064;50.890;5.424;2022-12-29T09:31:57;20.70;73.40
23769;DHT22;12064;50.890;5.424;2022-12-29T09:40:54;20.60;73.60
23769;DHT22;12064;50.890;5.424;2022-12-29T09:50:01;20.50;74.70
23769;DHT22;12064;50.890;5.424;2022-12-29T09:59:10;20.40;74.20
23769;DHT22;12064;50.890;5.424;2022-12-29T10:08:16;20.50;74.30
23769;DHT22;12064;50.890;5.424;2022-12-29T10:26:18;20.90;72.90
23769;DHT22;12064;50.890;5.424;2022-12-29T10:35:20;20.70;73.40
23769;DHT22;12064;50.890;5.424;2022-12-29T10:44:16;20.60;73.20
23769;DHT22;12064;50.890;5.424;2022-12-29T10:53:07;20.60;73.00
23769;DHT22;12064;50.890;5.424;2022-12-29T11:02:15;20.70;72.80
23769;DHT22;12064;50.890;5.424;2022-12-29T11:11:10;20.80;72.50
23769;DHT22;12064;50.890;5.424;2022-12-29T11:20:29;20.70;73.60
23769;DHT22;12064;50.890;5.424;2022-12-29T11:29:23;20.60;72.80
23769;DHT22;12064;50.890;5.424;2022-12-29T11:38:23;20.50;73.00
23769;DHT22;12064;50.890;5.424;2022-12-29T11:47:29;20.70;72.40
23769;DHT22;12064;50.890;5.424;2022-12-29T11:56:41;20.80;72.20
23769;DHT22;12064;50.890;5.424;2022-12-29T12:05:44;20.70;72.40
23769;DHT22;12064;50.890;5.424;2022-12-29T12:14:46;20.60;72.90
23769;DHT22;12064;50.890;5.424;2022-12-29T13:38:15;20.70;72.10
23769;DHT22;12064;50.890;5.424;2022-12-29T13:56:39;20.90;71.60
23769;DHT22;12064;50.890;5.424;2022-12-29T14:05:32;20.90;71.60
23769;DHT22;12064;50.890;5.424;2022-12-29T14:14:27;20.70;72.00
23769;DHT22;12064;50.890;5.424;2022-12-29T14:41:42;20.90;71.70
23769;DHT22;12064;50.890;5.424;2022-12-29T14:59:26;20.70;72.10
23769;DHT22;12064;50.890;5.424;2022-12-29T15:08:24;20.70;72.10
23769;DHT22;12064;50.890;5.424;2022-12-29T15:17:32;20.90;71.70
23769;DHT22;12064;50.890;5.424;2022-12-29T15:26:39;20.90;71.70
23769;DHT22;12064;50.890;5.424;2022-12-29T15:35:33;20.90;71.80
23769;DHT22;12064;50.890;5.424;2022-12-29T15:53:32;20.80;72.10
23769;DHT22;12064;50.890;5.424;2022-12-29T16:02:24;21.00;71.70
23769;DHT22;12064;50.890;5.424;2022-12-29T16:11:34;20.90;71.90
23769;DHT22;12064;50.890;5.424;2022-12-29T16:20:37;20.80;72.00
23769;DHT22;12064;50.890;5.424;2022-12-29T16:29:31;20.80;72.10
23769;DHT22;12064;50.890;5.424;2022-12-29T16:38:32;21.00;71.50
23769;DHT22;12064;50.890;5.424;2022-12-29T16:47:23;20.90;71.60
23769;DHT22;12064;50.890;5.424;2022-12-29T16:56:20;20.90;71.90
23769;DHT22;12064;50.890;5.424;2022-12-29T17:05:13;20.80;72.20
23769;DHT22;12064;50.890;5.424;2022-12-29T17:14:03;20.80;72.20
23769;DHT22;12064;50.890;5.424;2022-12-29T17:22:54;21.00;71.70
23769;DHT22;12064;50.890;5.424;2022-12-29T17:31:47;21.00;71.50
23769;DHT22;12064;50.890;5.424;2022-12-29T17:40:38;21.00;71.70
23769;DHT22;12064;50.890;5.424;2022-12-29T17:49:32;20.80;72.00
23769;DHT22;12064;50.890;5.424;2022-12-29T17:58:27;21.00;71.80
23769;DHT22;12064;50.890;5.424;2022-12-29T18:07:18;21.10;71.50
23769;DHT22;12064;50.890;5.424;2022-12-29T18:16:17;21.10;71.60
23769;DHT22;12064;50.890;5.424;2022-12-29T18:25:29;21.00;72.80
23769;DHT22;12064;50.890;5.424;2022-12-29T18:34:29;21.40;73.20
23769;DHT22;12064;50.890;5.424;2022-12-29T18:43:24;21.70;72.10
23769;DHT22;12064;50.890;5.424;2022-12-29T18:52:17;22.20;70.50
23769;DHT22;12064;50.890;5.424;2022-12-29T19:01:19;23.30;66.80
23769;DHT22;12064;50.890;5.424;2022-12-29T19:10:11;23.60;65.60
23769;DHT22;12064;50.890;5.424;2022-12-29T19:19:05;23.00;66.50
23769;DHT22;12064;50.890;5.424;2022-12-29T19:27:56;22.40;69.50
23769;DHT22;12064;50.890;5.424;2022-12-29T19:36:47;23.10;69.00
23769;DHT22;12064;50.890;5.424;2022-12-29T19:45:43;23.90;66.50
23769;DHT22;12064;50.890;5.424;2022-12-29T19:54:36;24.20;66.10
23769;DHT22;12064;50.890;5.424;2022-12-29T20:03:28;23.90;67.30
23769;DHT22;12064;50.890;5.424;2022-12-29T20:12:18;23.90;67.10
23769;DHT22;12064;50.890;5.424;2022-12-29T20:21:21;24.30;65.80
23769;DHT22;12064;50.890;5.424;2022-12-29T20:30:16;22.90;68.90
23769;DHT22;12064;50.890;5.424;2022-12-29T20:39:15;22.60;69.60
23769;DHT22;12064;50.890;5.424;2022-12-29T20:48:06;22.20;70.90
23769;DHT22;12064;50.890;5.424;2022-12-29T20:56:58;22.00;71.70
23769;DHT22;12064;50.890;5.424;2022-12-29T21:05:51;22.10;72.30
23769;DHT22;12064;50.890;5.424;2022-12-29T21:14:44;23.30;69.20
23769;DHT22;12064;50.890;5.424;2022-12-29T21:23:38;24.20;66.50
23769;DHT22;12064;50.890;5.424;2022-12-29T21:32:29;24.40;66.10
23769;DHT22;12064;50.890;5.424;2022-12-29T21:41:20;24.70;65.10
23769;DHT22;12064;50.890;5.424;2022-12-29T21:50:11;24.70;65.50
23769;DHT22;12064;50.890;5.424;2022-12-29T21:59:02;24.70;64.80
23769;DHT22;12064;50.890;5.424;2022-12-29T22:08:11;24.50;64.50
23769;DHT22;12064;50.890;5.424;2022-12-29T22:17:21;24.20;64.80
23769;DHT22;12064;50.890;5.424;2022-12-29T22:26:15;24.00;65.10
23769;DHT22;12064;50.890;5.424;2022-12-29T22:35:06;23.90;65.20
23769;DHT22;12064;50.890;5.424;2022-12-29T22:44:04;23.60;65.50
23769;DHT22;12064;50.890;5.424;2022-12-29T22:53:06;23.50;65.50
23769;DHT22;12064;50.890;5.424;2022-12-29T23:01:56;23.40;65.60
23769;DHT22;12064;50.890;5.424;2022-12-29T23:10:47;23.40;65.60
23769;DHT22;12064;50.890;5.424;2022-12-29T23:19:39;23.30;65.50
23769;DHT22;12064;50.890;5.424;2022-12-29T23:28:29;23.20;65.50
23769;DHT22;12064;50.890;5.424;2022-12-29T23:37:23;23.10;65.30
23769;DHT22;12064;50.890;5.424;2022-12-29T23:46:16;23.10;65.50
23769;DHT22;12064;50.890;5.424;2022-12-29T23:55:08;23.00;65.70
